Time;durP1;ratioP1;P1;durP2;ratioP2;P2;SDS_P1;SDS_P2;PMS_P1;PMS_P2;Temp;Humidity;BMP_temperature;BMP_pressure;BME280_temperature;BME280_humidity;BME280_pressure;Samples;Min_cycle;Max_cycle;Signal;HPM_P1;HPM_P2
2023/09/28 00:01:22;;;;;;;;;25.80;24.40;;;;;19.25;40.42;99722.56;4958851;28;8870;-71
2023/09/28 00:03:51;;;;;;;;;25.00;25.00;;;;;19.20;40.57;99713.97;4968204;28;8852;-71
2023/09/28 00:06:20;;;;;;;;;27.00;25.80;;;;;19.19;40.73;99719.38;4964694;28;8988;-69
2023/09/28 00:08:48;;;;;;;;;27.80;26.00;;;;;19.17;40.82;99719.44;4958959;28;8859;-69
2023/09/28 00:11:16;;;;;;;;;23.80;23.40;;;;;19.17;40.73;99716.78;4968789;28;8891;-70
2023/09/28 00:13:46;;;;;;;;;27.40;26.60;;;;;19.05;41.51;99712.97;4963826;28;8874;-69
2023/09/28 00:16:14;;;;;;;;;25.60;22.80;;;;;18.96;41.52;99720.59;4934908;28;8929;-71
2023/09/28 00:18:43;;;;;;;;;26.00;23.80;;;;;18.91;41.62;99716.38;4959780;28;8860;-69
2023/09/28 00:21:30;;;;;;;;;28.00;23.80;;;;;18.84;41.82;99714.13;4962156;28;8835;-69
2023/09/28 00:23:59;;;;;;;;;25.40;22.20;;;;;18.88;41.71;99715.69;4934964;28;8875;-68
2023/09/28 00:26:26;;;;;;;;;27.20;25.60;;;;;18.91;41.69;99713.72;4965974;28;8852;-68
2023/09/28 00:28:57;;;;;;;;;25.00;24.00;;;;;18.96;41.55;99716.13;4963748;28;8882;-69
2023/09/28 00:31:25;;;;;;;;;23.60;23.60;;;;;18.89;41.79;99712.06;4964432;28;9637;-69
2023/09/28 00:33:53;;;;;;;;;25.20;24.20;;;;;18.87;41.92;99713.94;4966726;28;8871;-69
2023/09/28 00:36:22;;;;;;;;;27.20;24.00;;;;;18.86;42.01;99712.25;4972229;28;8987;-69
2023/09/28 00:38:51;;;;;;;;;26.20;26.20;;;;;18.79;41.96;99718.81;4972119;28;8989;-69
2023/09/28 00:41:19;;;;;;;;;21.00;21.00;;;;;18.78;41.79;99725.94;4964484;28;8863;-69
2023/09/28 00:43:48;;;;;;;;;23.80;23.80;;;;;18.72;41.65;99727.13;4972227;28;8963;-69
2023/09/28 00:46:18;;;;;;;;;23.80;20.80;;;;;18.70;41.78;99726.31;4965181;28;8859;-69
2023/09/28 00:48:57;;;;;;;;;28.40;23.80;;;;;18.52;41.94;99714.81;4970744;28;8851;-68
2023/09/28 00:51:27;;;;;;;;;24.00;23.20;;;;;18.48;41.62;99718.59;4937891;28;8871;-68
2023/09/28 00:53:56;;;;;;;;;23.00;22.80;;;;;18.46;41.68;99717.81;4970439;28;8911;-68
2023/09/28 00:56:25;;;;;;;;;25.60;25.60;;;;;18.46;41.75;99719.56;4970498;28;8994;-69
2023/09/28 00:58:56;;;;;;;;;28.00;26.00;;;;;18.46;41.92;99723.13;4969028;28;8875;-69
2023/09/28 01:01:29;;;;;;;;;23.40;22.00;;;;;18.42;41.89;99718.00;4966611;28;8980;-68
2023/09/28 01:04:01;;;;;;;;;26.20;22.40;;;;;18.41;41.94;99724.28;4967614;28;8872;-70
2023/09/28 01:06:30;;;;;;;;;23.40;23.40;;;;;18.41;41.65;99726.97;4971043;28;8875;-69
2023/09/28 01:08:59;;;;;;;;;24.40;23.00;;;;;18.38;41.57;99729.75;4962338;28;8869;-68
2023/09/28 01:11:28;;;;;;;;;21.00;21.00;;;;;18.23;41.47;99724.28;4938053;28;8954;-68
2023/09/28 01:13:58;;;;;;;;;25.60;24.00;;;;;18.21;41.30;99723.47;4966504;28;8982;-68
2023/09/28 01:16:27;;;;;;;;;25.00;23.60;;;;;18.17;41.47;99719.25;4953298;28;8856;-67
2023/09/28 01:18:56;;;;;;;;;20.80;20.20;;;;;18.16;41.28;99720.22;4928392;28;8850;-69
2023/09/28 01:21:24;;;;;;;;;23.00;22.80;;;;;18.05;41.22;99719.88;4969452;28;8880;-69
2023/09/28 01:23:55;;;;;;;;;26.00;23.20;;;;;18.15;40.82;99718.47;4937862;28;8860;-70
2023/09/28 01:26:23;;;;;;;;;21.80;20.80;;;;;18.13;40.90;99723.00;4951740;28;8860;-69
2023/09/28 01:28:52;;;;;;;;;22.60;21.20;;;;;18.19;40.80;99708.53;4971313;28;8898;-69
2023/09/28 01:31:19;;;;;;;;;21.20;18.80;;;;;18.19;40.54;99712.06;4976618;28;8995;-69
2023/09/28 01:33:48;;;;;;;;;21.80;19.00;;;;;18.16;40.65;99712.22;4968948;28;8898;-70
2023/09/28 01:36:17;;;;;;;;;20.60;20.60;;;;;18.17;40.80;99708.59;4952838;28;8902;-68
2023/09/28 01:38:51;;;;;;;;;22.60;20.60;;;;;18.23;40.59;99716.31;4958615;28;8930;-69
2023/09/28 01:41:21;;;;;;;;;20.80;20.60;;;;;18.20;40.48;99712.94;4970067;28;8961;-69
2023/09/28 01:43:49;;;;;;;;;21.80;21.20;;;;;18.22;40.45;99714.56;4962250;28;8865;-69
2023/09/28 01:46:17;;;;;;;;;21.20;21.00;;;;;18.20;40.31;99721.78;4970608;28;8864;-69
2023/09/28 01:48:45;;;;;;;;;21.20;18.80;;;;;18.15;40.39;99715.81;4970524;28;8890;-69
2023/09/28 01:51:14;;;;;;;;;21.60;20.20;;;;;18.20;40.16;99719.13;4954462;28;8897;-70
2023/09/28 01:53:43;;;;;;;;;22.80;22.40;;;;;18.17;40.24;99713.94;4971014;28;8898;-69
2023/09/28 01:56:11;;;;;;;;;24.00;22.20;;;;;18.08;40.41;99720.59;4968957;28;8978;-68
2023/09/28 01:58:42;;;;;;;;;25.00;21.60;;;;;18.19;40.26;99717.38;4929211;28;8961;-69
2023/09/28 02:01:20;;;;;;;;;19.80;19.60;;;;;18.08;40.30;99719.72;4987460;28;8856;-69
2023/09/28 02:03:48;;;;;;;;;19.60;19.60;;;;;18.03;40.58;99721.72;4923741;28;8851;-68
2023/09/28 02:06:18;;;;;;;;;22.80;20.40;;;;;18.04;40.54;99723.47;4955688;28;8869;-69
2023/09/28 02:08:46;;;;;;;;;23.60;19.80;;;;;17.96;40.76;99729.13;4967433;28;8913;-69
2023/09/28 02:11:14;;;;;;;;;20.00;19.80;;;;;17.88;40.88;99718.00;4987536;28;8880;-69
2023/09/28 02:13:45;;;;;;;;;20.40;18.60;;;;;17.82;41.02;99724.50;4971330;28;8946;-68
2023/09/28 02:16:13;;;;;;;;;20.20;19.40;;;;;17.70;41.47;99720.63;4987006;28;9007;-68
2023/09/28 02:18:42;;;;;;;;;20.60;20.60;;;;;17.73;41.44;99717.81;4970773;28;8864;-69
2023/09/28 02:21:14;;;;;;;;;21.80;21.40;;;;;17.72;41.56;99717.88;4969934;28;8857;-70
2023/09/28 02:23:42;;;;;;;;;17.40;17.20;;;;;17.84;41.47;99721.75;4987074;28;8966;-68
2023/09/28 02:26:10;;;;;;;;;19.60;19.40;;;;;17.84;41.40;99722.63;4986753;28;8829;-68
2023/09/28 02:28:38;;;;;;;;;21.40;21.00;;;;;17.88;41.40;99716.19;4986867;28;8868;-69
2023/09/28 02:31:09;;;;;;;;;18.20;18.20;;;;;17.82;42.01;99713.84;4943599;28;9048;-69
2023/09/28 02:33:37;;;;;;;;;21.40;21.40;;;;;17.88;41.72;99715.34;4967502;28;9721;-69
2023/09/28 02:36:06;;;;;;;;;21.40;21.00;;;;;17.90;41.37;99721.47;4967259;28;8990;-69
2023/09/28 02:38:36;;;;;;;;;19.80;19.80;;;;;17.93;41.45;99711.53;4970544;28;8938;-68
2023/09/28 02:41:04;;;;;;;;;19.60;18.20;;;;;17.96;41.24;99722.00;4967567;28;8879;-69
2023/09/28 02:43:33;;;;;;;;;19.20;19.20;;;;;17.97;41.14;99722.88;4951292;28;8875;-69
2023/09/28 02:46:03;;;;;;;;;19.00;18.40;;;;;18.01;40.98;99718.28;4951102;28;8915;-69
2023/09/28 02:48:33;;;;;;;;;22.20;22.20;;;;;17.91;41.25;99713.41;4938424;28;8867;-69
2023/09/28 02:51:03;;;;;;;;;24.60;21.80;;;;;17.94;41.31;99720.38;4967220;28;9684;-68
2023/09/28 02:53:31;;;;;;;;;20.20;20.00;;;;;17.82;41.68;99719.16;4967111;28;8918;-68
2023/09/28 02:55:59;;;;;;;;;21.60;21.60;;;;;17.82;41.52;99720.97;4965879;28;8961;-69
2023/09/28 02:58:27;;;;;;;;;23.20;22.80;;;;;17.83;41.49;99715.56;4967566;28;8855;-69
2023/09/28 03:00:57;;;;;;;;;24.20;22.00;;;;;17.87;41.65;99714.50;4967378;28;8963;-69
2023/09/28 03:03:25;;;;;;;;;23.20;22.60;;;;;17.86;41.60;99714.56;4967135;28;8889;-69
2023/09/28 03:05:56;;;;;;;;;20.40;20.20;;;;;17.89;41.58;99720.59;4935809;28;8894;-68
2023/09/28 03:08:24;;;;;;;;;30.60;27.00;;;;;17.89;41.68;99711.75;4968428;28;8867;-69
2023/09/28 03:10:53;;;;;;;;;43.75;38.00;;;;;17.90;41.46;99711.66;4969485;28;8867;-68
2023/09/28 03:13:23;;;;;;;;;26.80;26.80;;;;;17.92;41.20;99701.81;4967150;28;8858;-68
2023/09/28 03:15:51;;;;;;;;;23.60;22.60;;;;;17.92;40.94;99707.13;4951474;28;8899;-69
2023/09/28 03:18:19;;;;;;;;;20.60;19.80;;;;;17.93;40.89;99706.22;4968170;28;8860;-69
2023/09/28 03:20:50;;;;;;;;;25.60;24.80;;;;;17.93;41.08;99715.97;4969423;28;8863;-67
2023/09/28 03:23:19;;;;;;;;;26.60;22.00;;;;;17.92;40.97;99708.94;4967975;28;8867;-69
2023/09/28 03:25:48;;;;;;;;;20.40;18.20;;;;;17.95;40.87;99711.47;4969413;28;8970;-69
2023/09/28 03:28:16;;;;;;;;;21.40;21.40;;;;;17.93;40.73;99721.28;4975238;28;8875;-67
2023/09/28 03:30:45;;;;;;;;;23.00;22.40;;;;;17.91;41.02;99716.06;4967973;28;8875;-69
2023/09/28 03:33:14;;;;;;;;;24.60;21.40;;;;;17.85;40.95;99716.34;4968358;28;8874;-69
2023/09/28 03:35:41;;;;;;;;;20.40;20.00;;;;;17.88;40.75;99723.31;4969521;28;8883;-71
2023/09/28 03:38:10;;;;;;;;;23.00;22.40;;;;;17.87;40.97;99722.47;4969110;28;8867;-68
2023/09/28 03:40:43;;;;;;;;;21.40;21.40;;;;;17.85;40.96;99720.81;4968981;28;8871;-70
2023/09/28 03:43:12;;;;;;;;;24.80;20.60;;;;;17.83;41.10;99720.88;4936145;28;8938;-70
2023/09/28 03:45:41;;;;;;;;;21.60;20.40;;;;;17.71;41.31;99721.47;4967926;28;8859;-70
2023/09/28 03:48:10;;;;;;;;;25.20;24.20;;;;;17.63;41.53;99720.97;4967029;28;8890;-68
2023/09/28 03:50:39;;;;;;;;;25.40;23.20;;;;;17.63;41.18;99728.94;4968966;28;8895;-69
2023/09/28 03:53:07;;;;;;;;;23.00;20.80;;;;;17.69;41.23;99729.53;4969375;28;8847;-70
2023/09/28 03:55:36;;;;;;;;;22.60;21.00;;;;;17.72;41.21;99736.47;4969032;28;8867;-68
2023/09/28 03:58:06;;;;;;;;;22.60;20.80;;;;;17.70;41.33;99733.03;4968794;28;8897;-69
2023/09/28 04:00:35;;;;;;;;;22.00;21.00;;;;;17.71;41.13;99738.28;4949799;28;8897;-70
2023/09/28 04:03:04;;;;;;;;;20.00;20.00;;;;;17.73;41.22;99736.41;4968799;28;8847;-70
2023/09/28 04:05:33;;;;;;;;;36.75;33.75;;;;;17.71;41.12;99732.13;4950936;28;8906;-69
2023/09/28 04:08:02;;;;;;;;;37.20;33.40;;;;;17.73;40.96;99731.09;4951328;28;8855;-68
2023/09/28 04:10:33;;;;;;;;;25.80;25.00;;;;;17.75;40.91;99726.56;4972530;28;8905;-70
2023/09/28 04:13:02;;;;;;;;;24.80;23.00;;;;;17.76;41.11;99724.78;4954386;28;8843;-70
2023/09/28 04:15:32;;;;;;;;;21.00;20.20;;;;;17.70;41.06;99733.03;4972818;28;8879;-70
2023/09/28 04:18:01;;;;;;;;;34.20;31.40;;;;;17.67;41.23;99731.41;4971059;28;8925;-69
2023/09/28 04:20:30;;;;;;;;;32.60;30.20;;;;;17.66;41.25;99731.47;4972550;28;8843;-69
2023/09/28 04:22:59;;;;;;;;;26.20;25.20;;;;;17.66;41.28;99736.78;4972678;28;8855;-69
2023/09/28 04:25:29;;;;;;;;;26.40;22.40;;;;;17.55;41.72;99738.16;4972491;28;8864;-69
2023/09/28 04:27:58;;;;;;;;;20.60;19.60;;;;;17.62;41.57;99736.06;4972539;28;9630;-68
2023/09/28 04:30:27;;;;;;;;;26.60;24.60;;;;;17.56;41.61;99745.19;4972184;28;8902;-69
2023/09/28 04:32:57;;;;;;;;;31.20;30.20;;;;;17.54;41.41;99741.75;4972354;28;8871;-69
2023/09/28 04:35:26;;;;;;;;;25.20;23.20;;;;;17.51;41.54;99747.22;4950907;28;8897;-68
2023/09/28 04:37:55;;;;;;;;;22.20;19.60;;;;;17.50;41.68;99753.44;4953409;28;8878;-70
2023/09/28 04:40:25;;;;;;;;;14.40;14.40;;;;;17.54;41.34;99749.72;4906046;28;8846;-70
2023/09/28 04:42:55;;;;;;;;;19.60;19.60;;;;;17.46;41.48;99745.72;4952492;28;8981;-70
2023/09/28 04:45:23;;;;;;;;;21.00;20.00;;;;;17.37;41.78;99752.28;4953513;28;8959;-69
2023/09/28 04:47:52;;;;;;;;;21.80;21.00;;;;;17.38;41.73;99748.69;4971834;28;8867;-70
2023/09/28 04:50:23;;;;;;;;;21.60;21.00;;;;;17.30;42.01;99745.53;4971196;28;9723;-70
2023/09/28 04:52:51;;;;;;;;;21.40;20.40;;;;;17.25;42.30;99752.81;4971781;28;8930;-70
2023/09/28 04:55:21;;;;;;;;;19.80;19.80;;;;;17.17;42.45;99751.38;4971700;28;8909;-71
2023/09/28 04:57:52;;;;;;;;;23.40;22.60;;;;;17.25;42.23;99748.41;4971215;28;8871;-70
2023/09/28 05:00:21;;;;;;;;;20.40;19.80;;;;;17.23;42.29;99757.34;4953592;28;8933;-71
2023/09/28 05:02:50;;;;;;;;;22.60;22.60;;;;;17.19;42.62;99746.88;4971799;28;8875;-70
2023/09/28 05:05:19;;;;;;;;;20.40;18.40;;;;;17.29;42.51;99746.47;4969836;28;8890;-70
2023/09/28 05:07:49;;;;;;;;;23.40;23.40;;;;;17.32;42.44;99748.97;4970365;28;8951;-70
2023/09/28 05:10:18;;;;;;;;;24.20;23.60;;;;;17.32;42.12;99748.97;4971176;28;8894;-68
2023/09/28 05:12:47;;;;;;;;;21.60;21.60;;;;;17.45;41.92;99750.13;4971488;28;8890;-70
2023/09/28 05:15:16;;;;;;;;;23.00;21.20;;;;;17.48;41.84;99750.00;4952832;28;8903;-69
2023/09/28 05:17:45;;;;;;;;;20.20;20.20;;;;;17.56;41.63;99755.81;4969642;28;8886;-70
2023/09/28 05:20:14;;;;;;;;;22.80;21.60;;;;;17.66;41.34;99750.94;4970186;28;8906;-69
2023/09/28 05:22:43;;;;;;;;;27.60;21.80;;;;;17.76;41.18;99764.66;4970345;28;8926;-69
2023/09/28 05:25:12;;;;;;;;;22.20;21.80;;;;;17.88;40.90;99760.56;4952744;28;8863;-69
2023/09/28 05:27:41;;;;;;;;;21.60;21.60;;;;;17.90;40.62;99756.88;4970740;28;8887;-70
2023/09/28 05:30:12;;;;;;;;;18.20;17.80;;;;;17.94;40.74;99766.44;4965060;28;9175;-69
2023/09/28 05:32:41;;;;;;;;;18.80;18.80;;;;;18.08;40.40;99764.94;4954305;28;8856;-69
2023/09/28 05:35:10;;;;;;;;;18.80;18.80;;;;;18.15;40.55;99763.69;4969200;28;8887;-72
2023/09/28 05:37:39;;;;;;;;;20.00;19.60;;;;;18.27;40.11;99764.88;4970555;28;10108;-74
2023/09/28 05:40:09;;;;;;;;;23.00;20.20;;;;;18.31;39.91;99764.69;4969534;28;8966;-75
2023/09/28 05:42:41;;;;;;;;;21.40;20.00;;;;;18.42;39.78;99765.94;4970076;28;8889;-75
2023/09/28 05:45:10;;;;;;;;;19.00;17.60;;;;;18.49;39.38;99767.34;4970558;28;9014;-77
2023/09/28 05:47:39;;;;;;;;;21.60;20.40;;;;;18.59;39.11;99767.75;4971345;28;8867;-76
2023/09/28 05:50:09;;;;;;;;;13.60;13.20;;;;;18.69;38.87;99769.88;4971335;28;9626;-76
2023/09/28 05:52:38;;;;;;;;;19.00;17.80;;;;;18.78;38.24;99768.53;4980613;28;8953;-78
2023/09/28 05:55:07;;;;;;;;;19.60;17.00;;;;;18.88;38.06;99775.13;4989694;28;8883;-77
2023/09/28 05:57:36;;;;;;;;;16.80;15.60;;;;;18.94;37.54;99768.63;4978650;28;8867;-77
2023/09/28 06:00:09;;;;;;;;;18.00;17.00;;;;;19.04;37.33;99771.66;4971116;28;8884;-77
2023/09/28 06:02:38;;;;;;;;;15.20;15.00;;;;;19.10;36.80;99769.56;4920530;28;8840;-75
2023/09/28 06:05:09;;;;;;;;;16.20;13.20;;;;;19.22;36.76;99775.16;4970007;28;8897;-77
2023/09/28 06:07:38;;;;;;;;;15.80;15.20;;;;;19.34;36.42;99777.16;4970339;28;8902;-76
2023/09/28 06:10:09;;;;;;;;;17.60;14.60;;;;;19.30;36.14;99772.94;4970539;28;8863;-75
2023/09/28 06:12:38;;;;;;;;;19.00;17.60;;;;;19.47;35.77;99778.22;4970625;28;8895;-76
2023/09/28 06:15:09;;;;;;;;;17.80;16.60;;;;;19.61;35.20;99774.84;4935854;28;9640;-77
2023/09/28 06:17:38;;;;;;;;;20.00;18.20;;;;;19.63;35.21;99778.28;4969144;28;8893;-77
2023/09/28 06:20:09;;;;;;;;;18.80;16.60;;;;;19.73;34.99;99781.31;4970135;28;8883;-77
2023/09/28 06:22:39;;;;;;;;;14.00;13.00;;;;;19.81;34.98;99787.06;4936767;28;8867;-76
2023/09/28 06:25:08;;;;;;;;;19.60;19.40;;;;;19.97;34.31;99788.88;4936869;28;8887;-75
2023/09/28 06:27:38;;;;;;;;;17.80;17.80;;;;;20.09;34.46;99786.38;4952563;28;8890;-75
2023/09/28 06:30:10;;;;;;;;;14.60;13.20;;;;;20.23;33.98;99780.28;4969921;28;8883;-75
2023/09/28 06:32:39;;;;;;;;;17.80;17.20;;;;;20.28;34.12;99796.03;4968401;28;9648;-76
2023/09/28 06:35:10;;;;;;;;;14.20;14.20;;;;;20.38;33.49;99794.53;4970055;28;8884;-78
2023/09/28 06:37:39;;;;;;;;;13.40;13.20;;;;;20.43;33.40;99795.16;4936356;28;8867;-76
2023/09/28 06:40:09;;;;;;;;;15.00;14.20;;;;;20.50;33.29;99795.66;4968974;28;8883;-75
2023/09/28 06:42:38;;;;;;;;;13.40;13.40;;;;;20.60;32.92;99804.84;4936943;28;8951;-76
2023/09/28 06:45:12;;;;;;;;;16.80;15.60;;;;;20.61;33.19;99809.22;4970373;28;9030;-76
2023/09/28 06:47:41;;;;;;;;;12.80;12.40;;;;;20.73;33.17;99798.75;4951319;28;8855;-77
2023/09/28 06:50:30;;;;;;;;;15.00;13.20;;;;;20.85;32.97;99803.41;4989252;28;8866;-78
2023/09/28 06:52:59;;;;;;;;;14.00;13.60;;;;;20.98;32.80;99807.06;4971430;28;8883;-78
2023/09/28 06:55:28;;;;;;;;;12.60;11.60;;;;;21.06;32.76;99804.78;4952216;28;9729;-73
2023/09/28 06:57:57;;;;;;;;;13.00;13.00;;;;;21.29;33.00;99812.38;4936156;28;8884;-73
2023/09/28 07:00:29;;;;;;;;;15.60;14.40;;;;;21.36;32.16;99825.25;4969504;28;8899;-72
2023/09/28 07:02:58;;;;;;;;;15.60;14.60;;;;;21.33;32.17;99816.56;4969858;28;8871;-74
2023/09/28 07:05:27;;;;;;;;;14.20;13.20;;;;;21.52;32.07;99817.16;4968585;28;8990;-74
2023/09/28 07:07:56;;;;;;;;;12.20;12.20;;;;;21.56;31.84;99821.38;4951728;28;8903;-74
2023/09/28 07:10:25;;;;;;;;;14.20;13.00;;;;;21.52;31.80;99819.84;4969963;28;8871;-74
2023/09/28 07:12:54;;;;;;;;;13.00;12.00;;;;;21.60;30.78;99819.41;4969649;28;8862;-73
2023/09/28 07:15:23;;;;;;;;;11.40;11.40;;;;;21.67;30.90;99823.38;4968830;28;8914;-74
2023/09/28 07:17:53;;;;;;;;;12.60;12.60;;;;;21.72;30.43;99826.63;4952047;28;8887;-73
2023/09/28 07:20:22;;;;;;;;;11.20;11.20;;;;;21.84;30.47;99825.88;4969752;28;9076;-73
2023/09/28 07:22:51;;;;;;;;;12.80;11.00;;;;;21.94;30.53;99830.63;4951751;28;8871;-73
2023/09/28 07:25:21;;;;;;;;;13.20;13.20;;;;;22.01;30.18;99830.13;4969435;28;8872;-73
2023/09/28 07:27:50;;;;;;;;;12.40;12.00;;;;;22.11;29.91;99829.53;4969825;28;8979;-73
2023/09/28 07:30:20;;;;;;;;;13.80;13.60;;;;;21.96;29.95;99836.75;4951324;28;8855;-76
2023/09/28 07:32:50;;;;;;;;;9.60;9.20;;;;;22.11;29.64;99832.19;4968157;28;8902;-75
2023/09/28 07:35:20;;;;;;;;;9.80;9.80;;;;;22.07;30.13;99834.25;4970264;28;9096;-75
2023/09/28 07:38:10;;;;;;;;;11.40;11.40;;;;;22.21;29.70;99847.56;4941692;28;8863;-74
2023/09/28 07:40:38;;;;;;;;;8.20;7.20;;;;;22.16;29.58;99838.13;4974414;28;8860;-72
2023/09/28 07:43:16;;;;;;;;;10.80;10.60;;;;;22.32;29.87;99841.56;4980418;28;8863;-73
2023/09/28 07:45:44;;;;;;;;;11.40;10.00;;;;;22.39;30.12;99840.22;4973140;28;8883;-74
2023/09/28 07:48:14;;;;;;;;;13.60;13.20;;;;;22.44;29.68;99834.53;4955128;28;8839;-73
2023/09/28 07:50:44;;;;;;;;;10.20;9.20;;;;;22.53;30.08;99843.78;4971003;28;8855;-76
2023/09/28 07:53:13;;;;;;;;;10.80;9.60;;;;;22.56;29.82;99841.78;4970679;28;8917;-73
2023/09/28 07:55:42;;;;;;;;;12.00;12.00;;;;;22.64;29.27;99838.56;4970939;28;8889;-73
2023/09/28 07:58:11;;;;;;;;;10.80;10.80;;;;;22.75;29.92;99843.19;4939242;28;8883;-76
2023/09/28 08:00:47;;;;;;;;;12.60;12.60;;;;;22.84;29.87;99839.03;4940730;28;9001;-73
2023/09/28 08:03:16;;;;;;;;;10.60;10.00;;;;;22.89;29.60;99843.16;4970712;28;8855;-73
2023/09/28 08:05:46;;;;;;;;;11.80;10.20;;;;;22.87;29.48;99846.91;4970546;28;8879;-74
2023/09/28 08:08:16;;;;;;;;;11.80;11.00;;;;;22.98;29.54;99837.19;4938832;28;9691;-72
2023/09/28 08:10:47;;;;;;;;;11.60;10.40;;;;;23.07;28.82;99837.50;4973469;28;9006;-73
2023/09/28 08:13:17;;;;;;;;;10.20;10.20;;;;;22.91;28.46;99835.03;4973202;28;8871;-74
2023/09/28 08:15:46;;;;;;;;;9.60;9.40;;;;;23.05;28.57;99836.75;4973124;28;8972;-72
2023/09/28 08:18:15;;;;;;;;;9.40;9.40;;;;;22.93;28.94;99836.63;4972891;28;8852;-73
2023/09/28 08:20:44;;;;;;;;;11.20;10.60;;;;;23.09;28.75;99843.63;4972885;28;8894;-73
2023/09/28 08:23:36;;;;;;;;;8.60;8.60;;;;;23.07;28.65;99840.19;4972557;28;9570;-74
2023/09/28 08:26:04;;;;;;;;;11.80;10.20;;;;;23.19;27.85;99847.41;4972607;28;8859;-74
2023/09/28 08:28:33;;;;;;;;;11.80;11.20;;;;;23.20;28.13;99838.38;4972941;28;8862;-73
2023/09/28 08:31:05;;;;;;;;;11.20;10.40;;;;;23.28;27.68;99840.53;4973001;28;8894;-74
2023/09/28 08:33:34;;;;;;;;;9.00;8.20;;;;;23.35;27.94;99837.31;4974088;28;8855;-74
2023/09/28 08:36:03;;;;;;;;;10.20;10.20;;;;;23.36;27.22;99832.81;4974275;28;8868;-73
2023/09/28 08:38:32;;;;;;;;;2.40;2.40;;;;;23.42;27.58;99836.91;4928505;28;8860;-74
2023/09/28 08:41:06;;;;;;;;;9.80;8.20;;;;;23.53;27.71;99839.72;4971462;28;8875;-73
2023/09/28 08:43:42;;;;;;;;;9.80;9.80;;;;;23.56;27.24;99836.78;4979718;28;8891;-73
2023/09/28 08:46:13;;;;;;;;;9.40;8.40;;;;;23.65;27.21;99838.81;4980857;28;8924;-74
2023/09/28 08:48:46;;;;;;;;;9.00;9.00;;;;;23.63;26.44;99838.09;4971529;28;8988;-74
2023/09/28 08:51:16;;;;;;;;;9.20;9.20;;;;;23.68;27.27;99838.63;4971358;28;8891;-76
2023/09/28 08:53:50;;;;;;;;;11.80;11.00;;;;;23.89;27.26;99832.69;4971846;28;8875;-73
2023/09/28 08:56:20;;;;;;;;;8.60;8.20;;;;;23.94;26.82;99828.69;4971616;28;8891;-74
2023/09/28 08:58:50;;;;;;;;;11.40;10.60;;;;;23.95;26.60;99837.59;4972429;28;8872;-71
2023/09/28 09:01:20;;;;;;;;;11.60;10.60;;;;;24.01;27.00;99837.16;4971385;28;8879;-74
2023/09/28 09:03:50;;;;;;;;;13.00;11.20;;;;;23.85;26.42;99834.72;4972390;28;8952;-75
2023/09/28 09:06:21;;;;;;;;;10.60;10.60;;;;;24.01;26.47;99831.78;4972275;28;8884;-73
2023/09/28 09:08:55;;;;;;;;;13.00;12.00;;;;;23.94;26.59;99827.81;4972299;28;9037;-74
2023/09/28 09:11:27;;;;;;;;;11.20;10.80;;;;;24.02;25.98;99832.63;4972024;28;8902;-75
2023/09/28 09:13:56;;;;;;;;;11.60;11.60;;;;;23.86;25.86;99831.06;4972646;28;8855;-74
2023/09/28 09:16:28;;;;;;;;;13.40;11.80;;;;;23.83;26.23;99836.66;4971402;28;8994;-72
2023/09/28 09:18:58;;;;;;;;;13.20;13.20;;;;;23.88;26.24;99831.81;4972113;28;8867;-72
2023/09/28 09:21:39;;;;;;;;;13.20;12.60;;;;;23.93;25.69;99834.16;4969248;28;8914;-75
2023/09/28 09:24:10;;;;;;;;;12.40;12.40;;;;;23.83;25.58;99833.09;4953330;28;8887;-75
2023/09/28 09:26:42;;;;;;;;;14.00;12.20;;;;;23.92;26.04;99838.69;4922722;28;9014;-76
2023/09/28 09:29:12;;;;;;;;;12.20;11.00;;;;;23.69;26.08;99832.25;4920946;28;8889;-72
2023/09/28 09:31:42;;;;;;;;;11.80;10.80;;;;;23.74;26.28;99834.63;4969752;28;8867;-74
2023/09/28 09:34:12;;;;;;;;;12.00;11.40;;;;;23.83;25.84;99833.09;4954311;28;8964;-74
2023/09/28 09:36:42;;;;;;;;;14.80;14.60;;;;;23.61;25.29;99831.97;4980645;28;9067;-73
2023/09/28 09:39:22;;;;;;;;;11.20;11.00;;;;;23.64;25.47;99833.56;4977466;28;8879;-74
2023/09/28 09:41:53;;;;;;;;;14.40;13.60;;;;;23.80;25.79;99834.19;4969225;28;8916;-74
2023/09/28 09:44:24;;;;;;;;;16.20;15.40;;;;;23.88;26.17;99833.63;4968613;28;9645;-74
2023/09/28 09:46:54;;;;;;;;;16.40;16.40;;;;;23.81;26.39;99840.41;4968769;28;8860;-73
2023/09/28 09:49:25;;;;;;;;;16.00;16.00;;;;;23.87;25.42;99845.34;4969259;28;8839;-74
2023/09/28 09:51:55;;;;;;;;;13.60;13.00;;;;;23.85;25.72;99825.81;4953664;28;8868;-75
2023/09/28 09:54:24;;;;;;;;;10.40;10.40;;;;;23.69;25.52;99828.72;4971410;28;8876;-74
2023/09/28 09:56:54;;;;;;;;;13.80;13.20;;;;;23.60;25.74;99830.22;4971313;28;8905;-73
2023/09/28 09:59:24;;;;;;;;;14.60;14.00;;;;;23.48;25.63;99821.19;4971202;28;8860;-74
2023/09/28 10:01:54;;;;;;;;;16.20;14.80;;;;;23.68;25.54;99827.88;4969871;28;8879;-75
2023/09/28 10:04:26;;;;;;;;;10.00;10.00;;;;;23.70;25.53;99827.78;4971137;28;8926;-75
2023/09/28 10:06:56;;;;;;;;;13.80;13.80;;;;;23.63;26.39;99829.19;4970637;28;9024;-75
2023/09/28 10:09:25;;;;;;;;;16.00;13.60;;;;;23.63;25.62;99830.03;4971118;28;9010;-74
2023/09/28 10:11:59;;;;;;;;;14.00;13.40;;;;;23.87;25.60;99834.63;4971131;28;9675;-77
2023/09/28 10:14:28;;;;;;;;;15.20;14.80;;;;;23.96;26.12;99831.25;4952161;28;8859;-76
2023/09/28 10:16:58;;;;;;;;;17.60;15.40;;;;;23.73;25.44;99831.09;4970608;28;8860;-73
2023/09/28 10:19:28;;;;;;;;;13.20;12.80;;;;;23.87;26.30;99830.09;4970576;28;8881;-73
2023/09/28 10:21:57;;;;;;;;;15.80;14.80;;;;;24.01;25.67;99823.72;4969141;28;8859;-75
2023/09/28 10:24:31;;;;;;;;;18.00;14.40;;;;;24.08;25.19;99825.00;4970453;28;8891;-74
2023/09/28 10:27:10;;;;;;;;;14.60;14.00;;;;;24.30;24.54;99816.25;4970720;28;8881;-76
2023/09/28 10:29:41;;;;;;;;;13.00;13.00;;;;;24.06;24.73;99826.94;4970802;28;8871;-74
2023/09/28 10:32:26;;;;;;;;;12.40;12.40;;;;;24.32;24.65;99819.69;4970528;28;8978;-73
2023/09/28 10:35:28;;;;;;;;;12.40;12.40;;;;;24.61;24.29;99816.63;4970838;28;8875;-76
2023/09/28 10:38:19;;;;;;;;;14.00;14.00;;;;;24.53;24.37;99816.34;4954073;28;8867;-73
2023/09/28 10:40:52;;;;;;;;;15.80;15.80;;;;;24.46;24.50;99818.63;4980751;28;8944;-72
2023/09/28 10:43:29;;;;;;;;;17.00;16.00;;;;;24.66;24.53;99819.84;4976476;28;9653;-74
2023/09/28 10:46:02;;;;;;;;;16.00;15.80;;;;;24.46;24.30;99812.41;4970684;28;8856;-75
2023/09/28 10:48:33;;;;;;;;;17.40;16.40;;;;;24.68;24.19;99822.38;4970312;28;8885;-73
2023/09/28 10:51:03;;;;;;;;;15.80;15.80;;;;;24.68;24.46;99814.31;4970324;28;8855;-77
2023/09/28 10:53:32;;;;;;;;;17.40;15.60;;;;;24.81;23.87;99803.53;4969274;28;8871;-75
2023/09/28 10:56:01;;;;;;;;;10.20;9.20;;;;;24.81;24.17;99808.91;4970909;28;8942;-73
2023/09/28 10:58:34;;;;;;;;;16.60;15.80;;;;;24.59;24.02;99804.28;4970164;28;8919;-75
2023/09/28 11:01:06;;;;;;;;;14.60;14.00;;;;;24.58;24.23;99807.94;4970313;28;8894;-75
2023/09/28 11:03:36;;;;;;;;;16.20;16.20;;;;;24.35;24.25;99797.94;4970498;28;8963;-73
2023/09/28 11:06:07;;;;;;;;;13.60;13.60;;;;;24.65;23.62;99796.59;4969978;28;8840;-73
2023/09/28 11:08:37;;;;;;;;;13.00;13.00;;;;;24.80;24.48;99791.91;4970367;28;8859;-74
2023/09/28 11:11:06;;;;;;;;;15.60;14.00;;;;;25.08;23.91;99785.25;4968967;28;8902;-76
2023/09/28 11:13:37;;;;;;;;;15.40;15.00;;;;;24.92;24.55;99793.69;4970281;28;8910;-73
2023/09/28 11:16:07;;;;;;;;;17.20;14.20;;;;;25.21;23.34;99801.31;4969789;28;8973;-75
2023/09/28 11:18:38;;;;;;;;;17.80;15.00;;;;;25.19;23.67;99794.31;4952595;28;9638;-74
2023/09/28 11:21:07;;;;;;;;;15.40;15.40;;;;;25.02;23.78;99785.75;4969469;28;9638;-72
2023/09/28 11:23:36;;;;;;;;;14.20;13.60;;;;;25.24;23.81;99792.97;4969405;28;8922;-76
2023/09/28 11:26:06;;;;;;;;;15.40;14.60;;;;;25.39;23.50;99785.56;4951620;28;8879;-75
2023/09/28 11:28:35;;;;;;;;;17.00;15.60;;;;;25.55;23.63;99785.19;4935798;28;8863;-73
2023/09/28 11:31:09;;;;;;;;;16.80;15.80;;;;;25.81;23.13;99788.44;4971978;28;8882;-71
2023/09/28 11:33:38;;;;;;;;;15.20;14.60;;;;;26.00;22.81;99781.59;4979401;28;8961;-71
2023/09/28 11:36:11;;;;;;;;;13.00;12.80;;;;;26.12;22.84;99775.22;4976176;28;8929;-72
2023/09/28 11:38:40;;;;;;;;;16.60;16.60;;;;;26.33;22.53;99772.56;4970345;28;9002;-72
2023/09/28 11:41:09;;;;;;;;;13.20;12.20;;;;;26.44;22.28;99779.75;4970433;28;8871;-72